• Join FlightAware (Why Join?)
  • Login
  • US Flag 
04:58PM EDT


 

Airport Tracker/Info


-or-


 

Live Flight TrackerFlight Track Log ✈ EJA396 ✈ 07-May-2014 ✈ KFAR - KMSP

Flight Track Log - Related Links

Times and Time Zones

All times are in EDT time to prevent confusion due to time zone crossing. See the EJA396 flight status page for this flight to view local times or setup timezone preferences in your user account.

Time Position Orientation Groundspeed Altitude Reporting Facility
EDT Latitude Longitude Course Direction KTS MPH feet Rate Location/Type
01:56PM 46.8817 -96.6567 83° East 245 282 4,800  Level Minneapolis Center
01:57PM 46.8717 -96.5514 98° East 248 285 7,400 2,700 Climbing Minneapolis Center
01:58PM 46.8550 -96.4353 102° East 275 316 10,400 3,240 Climbing Minneapolis Center
01:59PM 46.8375 -96.3003 101° East 322 371 14,200 3,960 Climbing Minneapolis Center
02:00PM 46.6328 -96.2793 119° Southeast  Level Estimated
02:00PM 46.8092 -96.1817 109° East 304 350 18,700  Level Minneapolis Center
02:01PM 46.6447 -96.1445 83° East  Level FlightAware Approximate
02:01PM 46.7708 -96.0894 121° Southeast 291 335 22,000  Level Minneapolis Center
02:02PM 46.7211 -95.9656 120° Southeast 353 406 23,000 480 Climbing Minneapolis Center
02:03PM 46.6500 -95.7956 121° Southeast 407 468 23,000  Level Minneapolis Center
02:04PM 46.5939 -95.6558 120° Southeast 405 466 23,000 -60 Level Minneapolis Center
02:05PM 46.5364 -95.5172 121° Southeast 403 464 22,900 -780 Descending Minneapolis Center
02:06PM 46.4769 -95.3761 121° Southeast 380 437 21,400 -960 Descending Minneapolis Center
02:07PM 46.4242 -95.2517 122° Southeast 368 423 21,000 -240 Descending Minneapolis Center
02:08PM 46.3747 -95.1311 121° Southeast 352 405 21,000  Level Minneapolis Center
02:09PM 46.3125 -95.0092 126° Southeast 370 426 21,000  Level Minneapolis Center
02:10PM 46.2492 -94.8883 127° Southeast 375 432 21,000  Level Minneapolis Center
02:12PM 46.1053 -94.6231 118° Southeast 390 449 21,000  Level Minneapolis Center
02:14PM 46.0392 -94.4989 127° Southeast 392 451 21,000  Level Minneapolis Center
02:15PM 45.9714 -94.3739 128° Southeast 394 453 21,000  Level Minneapolis Center
02:16PM 45.9031 -94.2481 128° Southeast 396 456 21,000 -540 Level Minneapolis Center
02:17PM 45.8342 -94.1217 128° Southeast 399 459 20,000 -1,680 Descending Minneapolis Center
02:18PM 45.7533 -93.9739 128° Southeast 399 459 17,500 -2,280 Descending Minneapolis Center
02:19PM 45.6858 -93.8528 129° Southeast 377 434 15,400 -1,980 Descending Minneapolis Center
02:20PM 45.6242 -93.7406 128° Southeast 364 419 13,500 -1,860 Descending Minneapolis Center
02:21PM 45.5631 -93.6308 128° Southeast 356 410 11,600 -1,260 Descending Minneapolis Center
02:22PM 45.4869 -93.5581 146° Southeast 298 343 10,900 -1,080 Descending Minneapolis Center
02:23PM 45.4139 -93.5383 169° South 274 315 9,400 -1,560 Descending Minneapolis Center
02:24PM 45.3350 -93.5189 170° South 270 311 7,700 -1,200 Descending Minneapolis Center
02:25PM 45.2664 -93.5064 173° South 255 293 7,000 -420 Descending Minneapolis Center
02:26PM 45.1947 -93.4928 172° South 255 293 6,900 -840 Descending Minneapolis Center
02:27PM 45.1217 -93.4814 174° South 248 285 5,400 -1,440 Descending Minneapolis Center
02:28PM 45.0553 -93.4736 175° South 243 280 4,000 -720 Descending Minneapolis Center
02:29PM 45.0214 -93.4175 131° Southeast 174 200 4,000 -540 Level Minneapolis Center
02:30PM 44.9950 -93.3750 131° Southeast 157 181 3,000 -540 Descending Minneapolis Center
02:31PM 44.9575 -93.3458 151° Southeast 156 180 3,000 -420 Level Minneapolis Center
02:32PM 44.9286 -93.3014 133° Southeast 140 161 2,200 -720 Descending Minneapolis Center
02:33PM 44.9103 -93.2611 123° Southeast 124 143 1,600 -600 Descending Minneapolis Center
02:35PM 44.8820 -93.2218 160° South  Level Estimated
02:42PM 44.8820 -93.2218 160° South  Level Estimated